createdAt,value
2022-10-25T00:03:56.815Z,11.75
2022-10-25T00:08:57.644Z,11.69
2022-10-25T00:14:01.708Z,11.65
2022-10-25T00:19:02.517Z,11.47
2022-10-25T00:24:03.295Z,11.37
2022-10-25T00:29:05.464Z,11.29
2022-10-25T00:34:06.275Z,11.34
2022-10-25T00:39:07.164Z,11.30
2022-10-25T00:45:01.356Z,11.24
2022-10-25T00:50:11.935Z,11.23
2022-10-25T00:55:16.674Z,11.22
2022-10-25T01:00:19.706Z,11.14
2022-10-25T01:05:22.778Z,11.15
2022-10-25T01:10:23.744Z,11.16
2022-10-25T01:15:29.977Z,11.27
2022-10-25T01:21:01.115Z,11.32
2022-10-25T01:26:24.901Z,11.36
2022-10-25T01:31:32.693Z,11.36
2022-10-25T01:36:43.800Z,11.31
2022-10-25T01:41:54.580Z,11.27
2022-10-25T01:47:03.582Z,11.08
2022-10-25T01:52:05.089Z,11.04
2022-10-25T01:57:23.937Z,11.02
2022-10-25T02:02:31.707Z,11.16
2022-10-25T02:07:38.663Z,10.94
2022-10-25T02:12:51.860Z,10.95
2022-10-25T02:17:58.379Z,10.89
2022-10-25T02:23:02.161Z,10.90
2022-10-25T02:28:06.464Z,10.81
2022-10-25T02:33:08.781Z,10.88
2022-10-25T02:38:10.011Z,11.04
2022-10-25T02:43:10.827Z,11.13
2022-10-25T02:48:12.992Z,11.17
2022-10-25T02:53:13.815Z,11.25
2022-10-25T02:58:14.608Z,11.28
2022-10-25T03:03:16.743Z,11.39
2022-10-25T03:08:17.580Z,11.47
2022-10-25T03:13:18.580Z,11.44
2022-10-25T03:18:20.781Z,11.42
2022-10-25T03:23:21.556Z,11.52
2022-10-25T03:28:23.049Z,11.56
2022-10-25T03:33:26.459Z,11.65
2022-10-25T03:38:27.350Z,11.72
2022-10-25T03:43:28.584Z,12.06
2022-10-25T03:48:30.768Z,12.33
2022-10-25T03:53:31.668Z,12.47
2022-10-25T03:58:32.847Z,12.48
2022-10-25T04:03:35.049Z,12.78
2022-10-25T04:08:35.896Z,12.80
2022-10-25T04:13:36.723Z,13.11
2022-10-25T04:18:38.943Z,13.06
2022-10-25T04:23:39.772Z,13.22
2022-10-25T04:28:40.542Z,13.67
2022-10-25T04:33:45.151Z,13.79
2022-10-25T04:38:49.245Z,13.90
2022-10-25T04:43:52.269Z,13.82
2022-10-25T04:48:54.442Z,13.77
2022-10-25T04:53:55.324Z,13.68
2022-10-25T04:58:56.128Z,13.65
2022-10-25T05:03:58.248Z,13.65
2022-10-25T05:08:59.044Z,13.34
2022-10-25T05:13:59.817Z,13.08
2022-10-25T05:19:02.244Z,12.86
2022-10-25T05:24:03.505Z,12.63
2022-10-25T05:29:06.715Z,12.55
2022-10-25T05:34:12.250Z,12.58
2022-10-25T05:39:13.080Z,12.46
2022-10-25T05:44:14.971Z,12.35
2022-10-25T05:49:17.162Z,12.23
2022-10-25T05:54:17.994Z,12.39
2022-10-25T05:59:18.880Z,12.21
2022-10-25T06:04:21.012Z,12.20
2022-10-25T06:09:21.992Z,12.20
2022-10-25T06:14:22.845Z,12.34
2022-10-25T06:19:25.097Z,12.29
2022-10-25T06:24:26.145Z,12.34
2022-10-25T06:29:26.958Z,12.62
2022-10-25T06:34:29.102Z,12.85
2022-10-25T06:39:29.935Z,13.07
2022-10-25T06:44:30.761Z,13.15
2022-10-25T06:49:32.899Z,13.39
2022-10-25T06:54:33.721Z,13.50
2022-10-25T06:59:34.525Z,13.62
2022-10-25T07:04:37.906Z,13.79
2022-10-25T07:09:40.828Z,13.92
2022-10-25T07:14:41.639Z,14.29
2022-10-25T07:19:43.857Z,14.63
2022-10-25T07:24:44.663Z,14.88
2022-10-25T07:29:45.614Z,15.10
2022-10-25T07:34:47.816Z,15.25
2022-10-25T07:39:48.647Z,15.43
2022-10-25T07:44:49.434Z,15.57
2022-10-25T07:49:51.581Z,15.62
2022-10-25T07:54:52.353Z,15.43
2022-10-25T07:59:53.166Z,15.54
2022-10-25T08:04:55.373Z,15.48
2022-10-25T08:09:56.206Z,15.68
2022-10-25T08:14:57.076Z,15.72
2022-10-25T08:20:00.198Z,15.92
2022-10-25T08:25:01.431Z,16.13
2022-10-25T08:30:02.317Z,16.09
2022-10-25T08:35:04.829Z,16.17
2022-10-25T08:40:07.056Z,16.24
2022-10-25T08:45:17.392Z,16.20
2022-10-25T08:50:23.825Z,16.30
2022-10-25T08:55:34.056Z,16.34
2022-10-25T09:00:39.153Z,16.50
2022-10-25T09:05:43.850Z,16.66
2022-10-25T09:10:54.557Z,16.63
2022-10-25T09:16:04.510Z,16.70
2022-10-25T09:21:22.184Z,17.09
2022-10-25T09:26:34.416Z,17.14
2022-10-25T09:31:41.826Z,17.11
2022-10-25T09:36:47.255Z,17.18
2022-10-25T09:41:51.414Z,17.19
2022-10-25T09:46:55.781Z,17.11
2022-10-25T09:52:04.378Z,17.20
2022-10-25T09:57:05.487Z,17.05
2022-10-25T10:02:06.501Z,16.67
2022-10-25T10:07:15.745Z,16.61
2022-10-25T10:12:22.333Z,16.56
2022-10-25T10:17:24.257Z,16.63
2022-10-25T10:22:26.619Z,16.79
2022-10-25T10:27:29.279Z,16.77
2022-10-25T10:32:34.279Z,16.55
2022-10-25T10:37:37.952Z,16.69
2022-10-25T10:42:41.402Z,16.74
2022-10-25T10:47:45.475Z,16.87
2022-10-25T10:52:49.164Z,16.81
2022-10-25T10:57:53.086Z,16.84
2022-10-25T11:07:59.210Z,16.84
2022-10-25T11:13:15.981Z,16.83
2022-10-25T11:18:20.362Z,16.78
2022-10-25T11:23:31.483Z,16.90
2022-10-25T11:28:43.318Z,17.12
2022-10-25T11:33:54.165Z,17.72
2022-10-25T11:39:10.294Z,17.58
2022-10-25T11:44:45.682Z,17.48
2022-10-25T11:49:59.851Z,17.32
2022-10-25T11:55:14.622Z,17.46
2022-10-25T12:00:18.243Z,17.38
2022-10-25T12:05:30.787Z,17.69
2022-10-25T12:10:37.015Z,17.38
2022-10-25T12:15:43.032Z,17.68
2022-10-25T12:20:46.845Z,17.70
2022-10-25T12:25:52.840Z,17.77
2022-10-25T12:31:02.002Z,17.78
2022-10-25T12:36:06.467Z,17.83
2022-10-25T12:41:16.154Z,17.65
2022-10-25T12:46:51.883Z,17.80
2022-10-25T12:52:07.950Z,17.95
2022-10-25T12:57:20.424Z,18.15
2022-10-25T13:03:10.233Z,18.06
2022-10-25T13:08:13.891Z,17.66
2022-10-25T13:13:22.812Z,17.59
2022-10-25T13:18:42.235Z,17.39
2022-10-25T13:23:59.932Z,17.00
2022-10-25T13:29:04.856Z,16.99
2022-10-25T13:34:31.735Z,17.01
2022-10-25T13:39:36.650Z,16.99
2022-10-25T13:44:51.448Z,17.36
2022-10-25T13:49:52.421Z,17.71
2022-10-25T13:54:57.635Z,17.61
2022-10-25T14:00:03.411Z,17.55
2022-10-25T14:05:13.358Z,17.47
2022-10-25T14:10:49.665Z,17.42
2022-10-25T14:15:57.428Z,17.33
2022-10-25T14:21:02.913Z,17.35
2022-10-25T14:26:06.184Z,17.38
2022-10-25T14:31:13.077Z,17.32
2022-10-25T14:36:26.407Z,17.14
2022-10-25T14:41:28.737Z,17.08
2022-10-25T14:46:33.541Z,17.06
2022-10-25T14:51:38.167Z,17.02
2022-10-25T14:56:41.811Z,16.95
2022-10-25T15:01:53.369Z,16.96
2022-10-25T15:06:54.422Z,16.75
2022-10-25T15:12:19.559Z,16.54
2022-10-25T15:17:28.473Z,16.30
2022-10-25T15:22:30.625Z,16.18
2022-10-25T15:27:40.420Z,16.11
2022-10-25T15:32:42.762Z,15.89
2022-10-25T15:37:43.593Z,15.74
2022-10-25T15:42:44.530Z,15.45
2022-10-25T15:47:47.616Z,15.25
2022-10-25T15:52:48.744Z,15.12
2022-10-25T15:57:50.577Z,14.89
2022-10-25T16:02:53.197Z,14.75
2022-10-25T16:07:54.498Z,14.57
2022-10-25T16:12:59.624Z,14.45
2022-10-25T16:18:01.945Z,14.50
2022-10-25T16:23:02.825Z,14.39
2022-10-25T16:28:03.746Z,14.40
2022-10-25T16:33:06.096Z,14.23
2022-10-25T16:38:07.698Z,14.14
2022-10-25T16:43:12.028Z,14.01
2022-10-25T16:48:14.271Z,13.79
2022-10-25T16:53:15.995Z,13.54
2022-10-25T16:58:16.834Z,13.41
2022-10-25T17:03:19.427Z,13.37
2022-10-25T17:08:20.311Z,13.27
2022-10-25T17:13:21.568Z,13.02
2022-10-25T17:18:26.926Z,13.02
2022-10-25T17:23:27.776Z,13.05
2022-10-25T17:28:28.720Z,12.99
2022-10-25T17:33:32.744Z,13.00
2022-10-25T17:38:33.633Z,12.93
2022-10-25T17:43:35.743Z,12.94
2022-10-25T17:48:37.925Z,13.07
2022-10-25T17:53:38.890Z,12.98
2022-10-25T17:58:41.551Z,12.97
2022-10-25T18:03:43.790Z,12.87
2022-10-25T18:08:45.425Z,12.60
2022-10-25T18:13:46.878Z,12.51
2022-10-25T18:18:49.318Z,12.32
2022-10-25T18:23:50.350Z,12.35
2022-10-25T18:28:51.215Z,12.20
2022-10-25T18:33:55.220Z,12.13
2022-10-25T18:38:56.526Z,12.04
2022-10-25T18:43:58.568Z,11.96
2022-10-25T18:49:00.789Z,11.85
2022-10-25T18:54:02.895Z,11.76
2022-10-25T18:59:03.938Z,11.65
2022-10-25T19:04:06.431Z,11.63
2022-10-25T19:09:07.299Z,11.59
2022-10-25T19:14:08.151Z,11.50
2022-10-25T19:19:11.967Z,11.39
2022-10-25T19:24:15.849Z,11.40
2022-10-25T19:29:17.014Z,11.25
2022-10-25T19:34:19.344Z,11.16
2022-10-25T19:39:20.150Z,11.14
2022-10-25T19:44:21.013Z,11.07
2022-10-25T19:49:23.167Z,11.10
2022-10-25T19:54:23.967Z,11.07
2022-10-25T19:59:24.911Z,11.03
2022-10-25T20:04:27.255Z,10.91
2022-10-25T20:09:28.189Z,10.88
2022-10-25T20:14:30.812Z,10.94
2022-10-25T20:19:33.293Z,10.89
2022-10-25T20:24:34.201Z,10.80
2022-10-25T20:29:35.016Z,10.73
2022-10-25T20:34:37.499Z,10.69
2022-10-25T20:39:38.281Z,10.67
2022-10-25T20:44:39.066Z,10.60
2022-10-25T20:49:41.300Z,10.59
2022-10-25T20:54:42.285Z,10.56
2022-10-25T20:59:43.169Z,10.46
2022-10-25T21:04:53.355Z,10.35
2022-10-25T21:09:54.722Z,10.30
2022-10-25T21:14:55.537Z,10.27
2022-10-25T21:19:57.700Z,10.26
2022-10-25T21:24:58.685Z,10.27
2022-10-25T21:29:59.440Z,10.19
2022-10-25T21:35:01.762Z,10.18
2022-10-25T21:40:02.543Z,10.16
2022-10-25T21:45:03.333Z,10.08
2022-10-25T21:50:05.902Z,10.03
2022-10-25T21:55:07.786Z,9.93
2022-10-25T22:00:10.315Z,9.90
2022-10-25T22:05:15.268Z,9.81
2022-10-25T22:10:16.634Z,9.75
2022-10-25T22:15:17.661Z,9.71
2022-10-25T22:20:19.903Z,9.65
2022-10-25T22:25:20.983Z,9.55
2022-10-25T22:30:22.451Z,9.55
2022-10-25T22:35:25.197Z,9.47
2022-10-25T22:40:26.000Z,9.37
2022-10-25T22:45:26.770Z,9.37
2022-10-25T22:50:28.992Z,9.36
2022-10-25T22:55:29.871Z,9.29
2022-10-25T23:00:30.637Z,9.26
2022-10-25T23:05:32.865Z,9.22
2022-10-25T23:10:33.726Z,9.14
2022-10-25T23:15:34.597Z,9.17
2022-10-25T23:20:36.745Z,9.18
2022-10-25T23:25:37.574Z,9.13
2022-10-25T23:30:38.450Z,9.02
2022-10-25T23:35:42.149Z,9.01
2022-10-25T23:40:47.724Z,8.92
2022-10-25T23:45:48.758Z,8.93
2022-10-25T23:50:57.465Z,8.82
2022-10-25T23:55:58.563Z,8.84
